Time;durP1;ratioP1;P1;durP2;ratioP2;P2;SDS_P1;SDS_P2;PMS_P1;PMS_P2;Temp;Humidity;BMP_temperature;BMP_pressure;BME280_temperature;BME280_humidity;BME280_pressure;Samples;Min_cycle;Max_cycle;Signal;HPM_P1;HPM_P2
2022/08/05 04:02:44;;;;;;;4.37;3.67;;;23.90;99.90;;;;;;5007111;22;21017;-75
2022/08/05 04:05:12;;;;;;;4.33;3.60;;;24.00;99.90;;;;;;5006967;28;20497;-75
2022/08/05 04:07:41;;;;;;;4.17;3.77;;;23.90;99.90;;;;;;5006966;28;21045;-75
2022/08/05 04:10:09;;;;;;;6.03;3.83;;;23.90;99.90;;;;;;5006968;28;21002;-75
2022/08/05 04:12:36;;;;;;;4.33;3.20;;;23.90;99.90;;;;;;4987353;28;20474;-75
2022/08/05 04:15:03;;;;;;;4.20;3.80;;;23.90;99.90;;;;;;4987368;28;20458;-75
2022/08/05 04:17:30;;;;;;;5.87;4.07;;;23.90;99.90;;;;;;4987806;28;20468;-75
2022/08/05 04:19:58;;;;;;;5.87;3.90;;;23.90;99.90;;;;;;4985897;28;20459;-68
2022/08/05 04:22:25;;;;;;;6.10;4.07;;;23.90;99.90;;;;;;4987599;28;20490;-68
2022/08/05 04:24:52;;;;;;;5.17;3.67;;;23.90;99.90;;;;;;4986871;28;20500;-68
2022/08/05 04:27:19;;;;;;;8.27;4.10;;;23.90;99.90;;;;;;4987435;28;20952;-68
2022/08/05 04:29:45;;;;;;;6.37;4.40;;;23.90;99.90;;;;;;4986057;28;20478;-68
2022/08/05 04:32:12;;;;;;;4.80;3.80;;;23.90;99.90;;;;;;4987286;28;21296;-68
2022/08/05 04:34:39;;;;;;;10.13;4.10;;;23.90;99.90;;;;;;4987068;28;20460;-68
2022/08/05 04:37:07;;;;;;;5.40;4.60;;;23.90;99.90;;;;;;4987845;28;20459;-68
2022/08/05 04:39:34;;;;;;;5.67;3.87;;;23.90;99.90;;;;;;4987335;28;20951;-68
2022/08/05 04:42:01;;;;;;;11.20;3.93;;;23.90;99.90;;;;;;4987433;28;20568;-68
2022/08/05 04:44:28;;;;;;;6.00;4.00;;;23.80;99.90;;;;;;4987041;28;20491;-70
2022/08/05 04:46:55;;;;;;;5.57;4.40;;;23.70;99.90;;;;;;4987982;28;20463;-70
2022/08/05 04:49:21;;;;;;;7.27;4.20;;;23.70;99.90;;;;;;4987724;28;21135;-70
2022/08/05 04:51:48;;;;;;;8.77;4.57;;;23.70;99.90;;;;;;4987822;28;20590;-70
2022/08/05 04:54:18;;;;;;;6.77;4.30;;;23.60;99.90;;;;;;4987029;28;20459;-70
2022/08/05 04:56:46;;;;;;;9.70;4.60;;;23.60;99.90;;;;;;4988295;28;20467;-70
2022/08/05 04:59:14;;;;;;;7.07;4.07;;;23.60;99.90;;;;;;4987509;28;20830;-70
2022/08/05 05:01:41;;;;;;;6.43;4.93;;;23.50;99.90;;;;;;4987565;28;20497;-69
2022/08/05 05:04:08;;;;;;;6.83;3.97;;;23.50;99.90;;;;;;4986416;28;20455;-71
2022/08/05 05:06:35;;;;;;;6.00;4.13;;;23.50;99.90;;;;;;4987176;28;20495;-70
2022/08/05 05:09:02;;;;;;;5.03;4.50;;;23.50;99.90;;;;;;4987535;28;20456;-70
2022/08/05 05:11:30;;;;;;;7.43;4.07;;;23.50;99.90;;;;;;4987438;28;20475;-70
2022/08/05 05:13:57;;;;;;;6.40;4.17;;;23.50;99.90;;;;;;4987570;28;20840;-71
2022/08/05 05:16:24;;;;;;;9.60;4.80;;;23.50;99.90;;;;;;4985270;28;20455;-75
2022/08/05 05:18:50;;;;;;;4.53;3.87;;;23.50;99.90;;;;;;4985846;28;20466;-74
2022/08/05 05:21:17;;;;;;;7.13;4.67;;;23.50;99.90;;;;;;4985580;28;20860;-74
2022/08/05 05:23:44;;;;;;;9.30;4.27;;;23.60;99.90;;;;;;4985471;28;20463;-74
2022/08/05 05:26:11;;;;;;;7.00;4.50;;;23.60;99.90;;;;;;4985051;28;20492;-74
2022/08/05 05:28:39;;;;;;;12.43;5.30;;;23.50;99.90;;;;;;4985089;28;20465;-74
2022/08/05 05:31:06;;;;;;;7.00;4.37;;;23.50;99.90;;;;;;4985228;28;20490;-74
2022/08/05 05:33:33;;;;;;;8.63;4.50;;;23.50;99.90;;;;;;4985263;28;20478;-74
2022/08/05 05:35:59;;;;;;;6.60;3.80;;;23.60;99.90;;;;;;4985007;28;20471;-74
2022/08/05 05:38:26;;;;;;;7.40;4.40;;;23.60;99.90;;;;;;4986500;28;20444;-69
2022/08/05 05:40:53;;;;;;;5.80;4.07;;;23.50;99.90;;;;;;4989128;28;20483;-70
2022/08/05 05:43:21;;;;;;;5.17;4.17;;;23.50;99.90;;;;;;4988321;28;20463;-70
2022/08/05 05:45:49;;;;;;;6.80;4.40;;;23.50;99.90;;;;;;4986501;28;20490;-70
2022/08/05 05:48:16;;;;;;;9.53;4.70;;;23.60;99.90;;;;;;4990144;28;20858;-70
2022/08/05 05:50:43;;;;;;;7.50;4.10;;;23.60;99.90;;;;;;4990862;28;20475;-70
2022/08/05 05:53:10;;;;;;;5.40;3.80;;;23.60;99.90;;;;;;4990869;28;20460;-70
2022/08/05 05:55:37;;;;;;;8.60;4.30;;;23.70;99.90;;;;;;4990001;28;20451;-70
2022/08/05 05:58:04;;;;;;;8.80;4.60;;;23.70;99.90;;;;;;4989694;28;20459;-70
2022/08/05 06:00:31;;;;;;;6.73;4.10;;;23.70;99.90;;;;;;4986544;28;20470;-70
2022/08/05 06:03:01;;;;;;;7.17;4.40;;;23.70;99.90;;;;;;4986586;28;20432;-75
2022/08/05 06:05:28;;;;;;;11.90;4.53;;;23.70;99.90;;;;;;4985304;28;20471;-75
2022/08/05 06:07:55;;;;;;;7.63;4.20;;;23.80;99.90;;;;;;4986105;28;20464;-75
2022/08/05 06:10:21;;;;;;;6.23;4.50;;;23.80;99.90;;;;;;4985801;28;20550;-75
2022/08/05 06:12:48;;;;;;;8.53;4.03;;;23.80;99.90;;;;;;4986277;28;20466;-74
2022/08/05 06:15:15;;;;;;;10.60;4.07;;;23.90;99.90;;;;;;4985667;28;20455;-75
2022/08/05 06:17:42;;;;;;;14.10;5.00;;;23.90;99.90;;;;;;4985771;28;20464;-75
2022/08/05 06:20:11;;;;;;;10.73;4.40;;;23.90;99.90;;;;;;4985615;28;20497;-75
2022/08/05 06:22:38;;;;;;;8.80;4.00;;;24.00;99.90;;;;;;4985796;28;20966;-75
2022/08/05 06:25:06;;;;;;;9.03;4.07;;;24.10;99.90;;;;;;4985217;28;20497;-75
2022/08/05 06:27:33;;;;;;;6.83;4.03;;;24.10;99.90;;;;;;4985783;28;20459;-74
2022/08/05 06:30:00;;;;;;;5.23;3.90;;;24.10;99.90;;;;;;4985657;28;20959;-75
2022/08/05 06:32:27;;;;;;;8.47;4.03;;;24.20;99.90;;;;;;4986033;28;20490;-75
2022/08/05 06:34:54;;;;;;;8.67;4.00;;;24.30;99.90;;;;;;4985200;28;20944;-75
2022/08/05 06:37:22;;;;;;;7.10;3.67;;;24.30;99.90;;;;;;4985319;28;20467;-75
2022/08/05 06:39:49;;;;;;;8.20;3.70;;;24.30;99.90;;;;;;4985819;28;20546;-75
2022/08/05 06:42:16;;;;;;;10.60;4.17;;;24.40;99.90;;;;;;4984280;28;20506;-75
2022/08/05 06:44:43;;;;;;;3.83;2.97;;;24.40;99.90;;;;;;4985556;28;20470;-75
2022/08/05 06:47:10;;;;;;;8.30;3.77;;;24.50;99.90;;;;;;4985628;28;20510;-75
2022/08/05 06:49:37;;;;;;;6.83;3.13;;;24.60;99.90;;;;;;4985425;28;20944;-75
2022/08/05 06:52:04;;;;;;;4.77;3.50;;;24.60;99.90;;;;;;4985698;28;20976;-75
2022/08/05 06:54:32;;;;;;;5.30;3.50;;;24.70;99.90;;;;;;4985139;28;20459;-75
2022/08/05 06:56:59;;;;;;;5.00;3.20;;;24.70;99.90;;;;;;4985645;28;21042;-75
2022/08/05 06:59:26;;;;;;;5.43;2.97;;;24.80;99.90;;;;;;4985734;28;20459;-75
2022/08/05 07:01:53;;;;;;;5.70;3.43;;;24.80;99.90;;;;;;4985556;28;20492;-75
2022/08/05 07:04:19;;;;;;;8.33;3.67;;;24.90;99.90;;;;;;4985181;28;20455;-75
2022/08/05 07:06:46;;;;;;;4.00;2.97;;;25.00;99.90;;;;;;4985811;28;20626;-75
2022/08/05 07:09:13;;;;;;;5.03;3.17;;;25.00;99.90;;;;;;4985511;28;20459;-75
2022/08/05 07:11:41;;;;;;;5.87;3.10;;;25.00;99.90;;;;;;4986440;28;20475;-75
2022/08/05 07:16:58;;;;;;;4.83;2.83;;;25.20;99.90;;;;;;4989134;28;20506;-73
2022/08/05 07:19:26;;;;;;;5.17;3.03;;;25.20;99.90;;;;;;4988692;28;20895;-75
2022/08/05 07:21:53;;;;;;;2.70;2.40;;;25.30;99.90;;;;;;4988828;28;21137;-75
2022/08/05 07:24:20;;;;;;;3.17;2.87;;;25.40;99.90;;;;;;4988330;28;20459;-75
2022/08/05 07:26:48;;;;;;;3.80;2.77;;;25.40;99.90;;;;;;4988837;28;20963;-75
2022/08/05 07:29:15;;;;;;;4.07;2.60;;;25.50;99.90;;;;;;4988988;28;20486;-75
2022/08/05 07:31:42;;;;;;;4.23;2.63;;;25.50;99.90;;;;;;4987991;28;20479;-75
2022/08/05 07:34:09;;;;;;;8.50;3.43;;;25.60;99.90;;;;;;4987587;28;20506;-75
2022/08/05 07:36:36;;;;;;;4.73;2.63;;;25.70;99.90;;;;;;4988419;28;20971;-75
2022/08/05 07:39:05;;;;;;;6.30;3.20;;;25.70;99.90;;;;;;4988729;28;20455;-75
2022/08/05 07:41:32;;;;;;;3.37;2.90;;;25.70;99.90;;;;;;4988648;28;20480;-73
2022/08/05 07:44:01;;;;;;;4.70;3.07;;;25.70;99.90;;;;;;4987956;28;20464;-74
2022/08/05 07:46:30;;;;;;;6.27;3.00;;;25.70;99.90;;;;;;4986509;28;20492;-74
2022/08/05 07:48:59;;;;;;;3.47;2.60;;;25.80;99.90;;;;;;4988713;28;20448;-73
2022/08/05 07:51:25;;;;;;;5.13;2.73;;;25.80;99.90;;;;;;4988669;28;20482;-72
2022/08/05 07:53:52;;;;;;;3.00;2.50;;;25.80;99.90;;;;;;4988490;28;20482;-72
2022/08/05 07:56:19;;;;;;;3.77;2.80;;;25.80;99.90;;;;;;4987741;28;20455;-73
2022/08/05 07:58:46;;;;;;;3.80;2.53;;;25.90;99.90;;;;;;4988329;28;20459;-72
2022/08/05 08:01:14;;;;;;;5.23;2.93;;;25.90;99.90;;;;;;4987821;28;20500;-72
2022/08/05 08:03:41;;;;;;;4.17;2.37;;;25.90;99.90;;;;;;4987828;28;21021;-73
2022/08/05 08:06:09;;;;;;;3.17;2.60;;;26.00;99.90;;;;;;4987639;28;20493;-73
2022/08/05 08:08:35;;;;;;;4.33;3.03;;;26.00;99.90;;;;;;4988585;28;20472;-73
2022/08/05 08:11:02;;;;;;;4.37;2.80;;;26.00;99.90;;;;;;4988007;28;20482;-72
2022/08/05 08:13:29;;;;;;;3.73;2.90;;;26.10;99.90;;;;;;4988085;28;20459;-73
2022/08/05 08:15:56;;;;;;;4.53;2.60;;;26.10;99.90;;;;;;4987216;28;20464;-73
2022/08/05 08:18:24;;;;;;;5.03;2.67;;;26.10;99.90;;;;;;4988212;28;20456;-73
2022/08/05 08:20:51;;;;;;;6.80;2.83;;;26.20;99.90;;;;;;4988234;28;20479;-73
2022/08/05 08:23:18;;;;;;;3.20;2.73;;;26.20;99.90;;;;;;4987787;28;20813;-73
2022/08/05 08:25:45;;;;;;;3.60;2.83;;;26.30;99.90;;;;;;4987582;28;20526;-73
2022/08/05 08:28:12;;;;;;;2.87;2.57;;;26.40;99.90;;;;;;4988282;28;20459;-73
2022/08/05 08:30:39;;;;;;;4.30;2.50;;;26.40;99.90;;;;;;4987677;28;20475;-73
2022/08/05 08:33:09;;;;;;;3.37;2.23;;;26.40;99.90;;;;;;4987725;28;20467;-73
2022/08/05 08:35:38;;;;;;;2.40;2.20;;;26.50;99.90;;;;;;4986934;28;20462;-73
2022/08/05 08:38:05;;;;;;;2.50;2.30;;;26.60;99.90;;;;;;4987655;28;20964;-70
2022/08/05 08:40:34;;;;;;;3.00;2.60;;;26.60;99.90;;;;;;4987345;28;20483;-71
2022/08/05 08:43:01;;;;;;;3.00;2.50;;;26.70;99.90;;;;;;4987754;28;20464;-71
2022/08/05 08:45:30;;;;;;;4.30;2.70;;;26.80;99.90;;;;;;4984861;28;20463;-71
2022/08/05 08:48:01;;;;;;;3.97;2.40;;;26.80;99.90;;;;;;4987202;28;20474;-71
2022/08/05 08:50:30;;;;;;;3.00;2.63;;;26.90;99.90;;;;;;4987111;28;20463;-71
2022/08/05 08:53:04;;;;;;;5.90;3.77;;;26.90;99.90;;;;;;4987120;28;20824;-71
2022/08/05 08:55:31;;;;;;;4.50;2.90;;;27.00;99.90;;;;;;4986262;28;20542;-71
2022/08/05 08:57:59;;;;;;;6.10;2.67;;;27.00;99.90;;;;;;4987333;28;20479;-71
2022/08/05 09:00:26;;;;;;;3.63;2.67;;;27.00;99.90;;;;;;4987155;28;20459;-71
2022/08/05 09:02:53;;;;;;;3.23;2.40;;;27.10;99.90;;;;;;4987213;28;20443;-71
2022/08/05 09:05:21;;;;;;;2.73;2.40;;;27.20;99.90;;;;;;4986513;28;20464;-71
2022/08/05 09:07:47;;;;;;;6.10;2.40;;;27.20;99.90;;;;;;4986952;28;20483;-71
2022/08/05 09:10:16;;;;;;;3.97;2.37;;;27.30;99.90;;;;;;4987017;28;20522;-71
2022/08/05 09:12:43;;;;;;;4.23;2.60;;;27.30;99.90;;;;;;4986871;28;20797;-71
2022/08/05 09:15:11;;;;;;;2.33;2.13;;;27.40;99.90;;;;;;4986045;28;21312;-71
2022/08/05 09:17:38;;;;;;;6.23;3.73;;;27.40;99.90;;;;;;4986830;28;20948;-71
2022/08/05 09:20:06;;;;;;;4.70;2.90;;;27.50;99.90;;;;;;4986809;28;20459;-71
2022/08/05 09:23:04;;;;;;;5.20;2.70;;;27.60;99.90;;;;;;4986508;28;20491;-71
2022/08/05 09:25:33;;;;;;;2.90;2.27;;;27.60;99.90;;;;;;4986320;28;20451;-71
2022/08/05 09:28:10;;;;;;;3.53;2.37;;;27.60;99.90;;;;;;4986320;28;20491;-72
2022/08/05 09:30:37;;;;;;;2.67;2.10;;;27.70;99.90;;;;;;4986511;28;21117;-72
2022/08/05 09:33:04;;;;;;;2.70;2.43;;;27.70;99.90;;;;;;4986457;28;21037;-73
2022/08/05 09:35:31;;;;;;;4.50;2.30;;;27.80;99.90;;;;;;4985430;28;20459;-73
2022/08/05 09:37:58;;;;;;;4.83;3.00;;;27.80;99.90;;;;;;4986609;28;20448;-73
2022/08/05 09:40:35;;;;;;;7.13;3.40;;;27.90;99.90;;;;;;4986319;28;20459;-73
2022/08/05 09:43:05;;;;;;;2.23;2.03;;;28.00;99.90;;;;;;4986525;28;20463;-72
2022/08/05 09:45:39;;;;;;;3.93;2.20;;;28.00;99.90;;;;;;4984112;28;20967;-72
2022/08/05 09:48:26;;;;;;;2.60;1.93;;;28.10;99.90;;;;;;4986286;28;20497;-72
2022/08/05 09:50:56;;;;;;;2.67;2.43;;;28.10;99.90;;;;;;4986255;28;20983;-72
2022/08/05 09:53:24;;;;;;;4.20;2.33;;;28.20;99.90;;;;;;4986338;28;20455;-72
2022/08/05 09:55:57;;;;;;;4.33;2.10;;;28.30;99.90;;;;;;4985748;28;20460;-71
2022/08/05 09:58:24;;;;;;;4.30;2.50;;;28.30;99.90;;;;;;4986307;28;20910;-72
2022/08/05 10:00:57;;;;;;;4.53;2.90;;;28.40;99.90;;;;;;4986210;28;20500;-72
2022/08/05 10:03:24;;;;;;;2.93;2.20;;;28.40;99.90;;;;;;4986349;28;20462;-72
2022/08/05 10:06:02;;;;;;;2.70;2.10;;;28.40;99.90;;;;;;4985262;28;20832;-72
2022/08/05 10:08:29;;;;;;;5.50;2.90;;;28.50;99.90;;;;;;4986159;28;20447;-72
2022/08/05 10:10:58;;;;;;;2.97;1.97;;;28.60;99.90;;;;;;4985962;28;21022;-72
2022/08/05 10:13:32;;;;;;;2.23;1.87;;;28.60;99.90;;;;;;4986216;28;20451;-75
2022/08/05 10:15:59;;;;;;;3.70;2.33;;;28.70;99.90;;;;;;4985239;28;20542;-75
2022/08/05 10:18:26;;;;;;;3.77;2.00;;;28.70;99.90;;;;;;4985888;28;20648;-75
2022/08/05 10:20:55;;;;;;;3.07;2.30;;;28.80;99.90;;;;;;4985808;28;20523;-75
2022/08/05 10:23:25;;;;;;;3.53;2.13;;;28.80;99.90;;;;;;4986222;28;20511;-75
2022/08/05 10:25:52;;;;;;;3.30;1.70;;;28.90;99.90;;;;;;4985167;28;20456;-75
2022/08/05 10:28:20;;;;;;;3.80;2.33;;;29.00;99.90;;;;;;4984875;28;20502;-75
2022/08/05 10:30:47;;;;;;;2.40;2.20;;;29.10;99.90;;;;;;4985332;28;20995;-74
2022/08/05 10:33:14;;;;;;;2.60;1.90;;;29.10;99.90;;;;;;4986026;28;20460;-74
2022/08/05 10:35:41;;;;;;;2.80;2.20;;;29.20;99.90;;;;;;4985391;28;20451;-75
2022/08/05 10:38:08;;;;;;;3.77;2.20;;;29.30;99.90;;;;;;4985665;28;20456;-76
2022/08/05 10:40:39;;;;;;;4.07;2.37;;;29.30;99.90;;;;;;4985891;28;20490;-74
2022/08/05 10:43:17;;;;;;;3.10;2.23;;;29.40;99.90;;;;;;4985902;28;20721;-75
2022/08/05 10:45:56;;;;;;;10.27;2.80;;;29.50;99.90;;;;;;4984227;28;20534;-76
2022/08/05 10:48:34;;;;;;;3.50;2.10;;;29.50;99.90;;;;;;4989468;28;20479;-76
2022/08/05 10:51:07;;;;;;;2.53;2.30;;;29.60;99.90;;;;;;4989471;28;20479;-75
2022/08/05 10:53:37;;;;;;;5.03;2.60;;;29.70;99.90;;;;;;4989429;28;20983;-75
2022/08/05 10:56:05;;;;;;;8.03;2.50;;;29.80;99.90;;;;;;4988804;28;20539;-76
2022/08/05 10:58:32;;;;;;;4.90;2.17;;;29.80;99.90;;;;;;4989610;28;20455;-75
2022/08/05 11:01:00;;;;;;;3.83;2.33;;;29.90;99.90;;;;;;4989499;28;20491;-75
2022/08/05 11:03:28;;;;;;;3.30;2.00;;;30.00;99.90;;;;;;4989323;28;20850;-75
2022/08/05 11:06:09;;;;;;;2.83;2.20;;;30.10;99.90;;;;;;4989108;28;20494;-76
2022/08/05 11:08:35;;;;;;;2.80;2.43;;;30.10;99.90;;;;;;4989259;28;20542;-76
2022/08/05 11:11:34;;;;;;;6.00;2.40;;;30.20;99.90;;;;;;4989547;28;20482;-76
2022/08/05 11:14:02;;;;;;;3.07;2.00;;;30.20;99.90;;;;;;4988970;28;20521;-76
2022/08/05 11:16:31;;;;;;;4.87;2.40;;;30.20;99.90;;;;;;4988981;28;20803;-75
2022/08/05 11:19:26;;;;;;;3.03;2.50;;;30.20;99.90;;;;;;4988975;28;20829;-75
2022/08/05 11:21:54;;;;;;;6.40;2.37;;;30.30;99.90;;;;;;4989065;28;20467;-75
2022/08/05 11:24:22;;;;;;;2.50;2.30;;;30.30;99.90;;;;;;4988040;28;20460;-75
2022/08/05 11:26:50;;;;;;;3.83;2.40;;;30.30;99.90;;;;;;4988706;28;20491;-75
2022/08/05 11:29:40;;;;;;;3.83;2.47;;;30.40;99.90;;;;;;4988822;28;20549;-78
2022/08/05 11:32:28;;;;;;;5.83;2.63;;;30.50;99.90;;;;;;4967601;28;20531;-74
2022/08/05 11:34:56;;;;;;;3.43;2.30;;;30.60;99.90;;;;;;4986855;28;20458;-74
2022/08/05 11:37:42;;;;;;;3.00;2.67;;;30.70;99.90;;;;;;4987778;28;20454;-74
2022/08/05 11:40:09;;;;;;;3.53;2.33;;;30.70;99.90;;;;;;4987564;28;21071;-74
2022/08/05 11:42:40;;;;;;;3.73;2.70;;;30.80;99.90;;;;;;4987261;28;20996;-74
2022/08/05 11:45:08;;;;;;;4.30;2.60;;;30.90;99.90;;;;;;4986953;28;20498;-74
2022/08/05 11:47:37;;;;;;;2.83;2.30;;;30.90;99.90;;;;;;4987583;28;20557;-74
2022/08/05 11:50:05;;;;;;;5.93;2.60;;;31.00;99.90;;;;;;4987677;28;20471;-74
2022/08/05 11:52:32;;;;;;;4.07;2.60;;;31.00;99.90;;;;;;4987473;28;20563;-74
2022/08/05 11:54:59;;;;;;;2.50;2.30;;;31.10;99.90;;;;;;4987160;28;20466;-74
2022/08/05 11:57:30;;;;;;;3.33;2.37;;;31.10;99.90;;;;;;4986658;28;20487;-73
2022/08/05 11:59:58;;;;;;;3.53;2.50;;;31.20;99.90;;;;;;4987130;28;20459;-73
2022/08/05 12:02:27;;;;;;;4.47;2.33;;;31.30;99.90;;;;;;4986773;28;20488;-73
2022/08/05 12:04:57;;;;;;;4.83;2.40;;;31.20;99.90;;;;;;4985859;28;20463;-73
2022/08/05 12:07:24;;;;;;;3.60;2.60;;;31.20;99.90;;;;;;4987073;28;20873;-73
2022/08/05 12:09:54;;;;;;;2.80;2.43;;;31.20;99.90;;;;;;4987365;28;20468;-73
2022/08/05 12:12:26;;;;;;;4.53;2.87;;;31.30;99.90;;;;;;4987348;28;20483;-73
2022/08/05 12:14:53;;;;;;;4.83;2.50;;;31.30;99.90;;;;;;4986676;28;20464;-73
2022/08/05 12:17:20;;;;;;;2.60;2.40;;;31.30;99.90;;;;;;4987916;28;20468;-73
2022/08/05 12:19:49;;;;;;;2.53;2.27;;;31.30;99.90;;;;;;4985874;28;20467;-74
2022/08/05 12:22:20;;;;;;;2.90;2.70;;;31.30;99.90;;;;;;4987943;28;20571;-73
2022/08/05 12:24:49;;;;;;;3.57;2.13;;;31.40;99.90;;;;;;4987289;28;20557;-73
2022/08/05 12:27:23;;;;;;;3.93;2.10;;;31.40;99.90;;;;;;4987909;28;20495;-73
2022/08/05 12:29:59;;;;;;;3.63;2.53;;;31.50;99.90;;;;;;4987604;28;20465;-73
2022/08/05 12:32:27;;;;;;;3.27;2.50;;;31.60;99.90;;;;;;4987926;28;20484;-74
2022/08/05 12:34:54;;;;;;;3.70;2.80;;;31.70;99.90;;;;;;4987129;28;20474;-74
2022/08/05 12:37:23;;;;;;;3.63;2.13;;;31.80;99.90;;;;;;4987305;28;21031;-74
2022/08/05 12:39:51;;;;;;;4.73;2.83;;;31.80;99.90;;;;;;4987477;28;20456;-74
2022/08/05 12:42:20;;;;;;;4.20;2.90;;;31.90;99.90;;;;;;4987208;28;20479;-73
2022/08/05 12:44:47;;;;;;;5.30;2.40;;;32.00;99.90;;;;;;4986166;28;20455;-73
2022/08/05 12:47:14;;;;;;;3.90;2.17;;;32.10;99.90;;;;;;4987617;28;20499;-74
2022/08/05 12:49:44;;;;;;;5.63;2.50;;;32.10;99.90;;;;;;4987390;28;20566;-74
2022/08/05 12:52:15;;;;;;;3.87;2.53;;;32.10;98.80;;;;;;4987291;28;20479;-73
2022/08/05 12:54:46;;;;;;;3.10;2.30;;;32.20;98.10;;;;;;4986674;28;20456;-74
2022/08/05 12:57:13;;;;;;;3.13;2.50;;;32.20;99.00;;;;;;4987372;28;20537;-73
2022/08/05 12:59:44;;;;;;;4.63;2.50;;;32.30;98.70;;;;;;4986774;28;20467;-73
2022/08/05 13:02:15;;;;;;;3.80;2.57;;;32.20;97.90;;;;;;4986055;28;20495;-73
2022/08/05 13:04:44;;;;;;;3.90;2.40;;;32.20;98.10;;;;;;4985597;28;20495;-73
2022/08/05 13:07:14;;;;;;;2.37;2.17;;;32.20;98.90;;;;;;4987136;28;20492;-73
2022/08/05 13:09:43;;;;;;;4.17;2.60;;;32.30;98.20;;;;;;4985976;28;20488;-73
2022/08/05 13:12:13;;;;;;;4.33;2.60;;;32.30;98.80;;;;;;4987088;28;20479;-73
2022/08/05 13:14:41;;;;;;;3.27;2.40;;;32.30;99.70;;;;;;4986111;28;20460;-73
2022/08/05 13:17:10;;;;;;;2.67;2.20;;;32.40;98.50;;;;;;4986816;28;20963;-73
2022/08/05 13:19:38;;;;;;;2.90;2.33;;;32.50;98.20;;;;;;4985023;28;20463;-73
2022/08/05 13:22:05;;;;;;;3.23;2.60;;;32.50;97.50;;;;;;4986415;28;20487;-73
2022/08/05 13:24:32;;;;;;;3.07;2.20;;;32.50;98.20;;;;;;4986061;28;20459;-73
2022/08/05 13:27:00;;;;;;;4.13;2.70;;;32.50;97.40;;;;;;4986564;28;20951;-73
2022/08/05 13:29:27;;;;;;;3.63;2.10;;;32.50;97.30;;;;;;4986532;28;20470;-73
2022/08/05 13:31:57;;;;;;;2.87;2.50;;;32.50;98.50;;;;;;4986613;28;20483;-73
2022/08/05 13:34:23;;;;;;;3.07;2.13;;;32.50;98.30;;;;;;4985996;28;20474;-73
2022/08/05 13:36:50;;;;;;;2.80;2.20;;;32.60;97.50;;;;;;4986910;28;20452;-73
2022/08/05 13:39:17;;;;;;;4.17;2.23;;;32.60;98.10;;;;;;4986453;28;20963;-73
2022/08/05 13:41:44;;;;;;;4.33;2.20;;;32.60;96.40;;;;;;4986671;28;20479;-74
2022/08/05 13:44:12;;;;;;;5.63;2.47;;;32.60;96.10;;;;;;4985499;28;20463;-73
2022/08/05 13:46:39;;;;;;;2.40;2.20;;;32.60;95.70;;;;;;4985971;28;20459;-73
2022/08/05 13:49:06;;;;;;;4.00;2.10;;;32.60;96.30;;;;;;4985761;28;20495;-73
2022/08/05 13:51:33;;;;;;;4.87;2.50;;;32.60;96.70;;;;;;4986185;28;20488;-73
2022/08/05 13:54:00;;;;;;;4.03;2.47;;;32.60;96.30;;;;;;4985881;28;20460;-73
2022/08/05 13:56:27;;;;;;;2.33;2.03;;;32.50;96.60;;;;;;4986004;28;20463;-73
2022/08/05 13:58:54;;;;;;;3.53;2.43;;;32.50;96.40;;;;;;4986428;28;20452;-73
2022/08/05 14:01:22;;;;;;;3.87;2.20;;;32.50;96.50;;;;;;4986009;28;20499;-73
2022/08/05 14:06:30;;;;;;;4.20;2.50;;;32.50;96.10;;;;;;4985253;28;20489;-73
2022/08/05 14:08:58;;;;;;;3.23;2.40;;;32.50;95.90;;;;;;4985119;28;20498;-73
2022/08/05 14:11:24;;;;;;;3.50;2.40;;;32.50;96.80;;;;;;4985225;28;20490;-73
2022/08/05 14:13:51;;;;;;;4.50;2.00;;;32.60;96.80;;;;;;4985947;28;20470;-73
2022/08/05 14:16:18;;;;;;;3.37;2.27;;;32.60;96.10;;;;;;4985384;28;20460;-73
2022/08/05 14:18:46;;;;;;;3.13;2.70;;;32.60;95.50;;;;;;4986026;28;20455;-73
2022/08/05 14:21:13;;;;;;;3.40;2.93;;;32.60;95.80;;;;;;4987415;28;20483;-73
2022/08/05 14:23:40;;;;;;;3.10;2.60;;;32.70;95.80;;;;;;4988264;28;20490;-74
2022/08/05 14:26:07;;;;;;;5.63;2.40;;;32.70;96.30;;;;;;4989182;28;20816;-74
2022/08/05 14:28:33;;;;;;;7.53;2.20;;;32.70;96.40;;;;;;4989340;28;20502;-73
2022/08/05 14:31:00;;;;;;;2.77;2.00;;;32.80;95.30;;;;;;4990400;28;20475;-70
2022/08/05 14:33:27;;;;;;;4.77;2.50;;;32.90;96.30;;;;;;4990342;28;20459;-71
2022/08/05 14:35:56;;;;;;;7.63;2.53;;;32.90;96.00;;;;;;4989199;28;20505;-71
2022/08/05 14:38:23;;;;;;;4.50;2.13;;;33.00;95.70;;;;;;4989761;28;20465;-71
2022/08/05 14:40:50;;;;;;;6.37;2.43;;;32.90;95.60;;;;;;4989866;28;20990;-71
2022/08/05 14:43:16;;;;;;;3.33;2.17;;;32.90;95.80;;;;;;4989803;28;21284;-70
2022/08/05 14:45:43;;;;;;;2.70;2.00;;;32.70;95.00;;;;;;4988800;28;21013;-70
2022/08/05 14:48:10;;;;;;;4.50;2.40;;;32.80;95.40;;;;;;4989825;28;20499;-69
2022/08/05 14:50:37;;;;;;;2.93;2.07;;;32.70;95.30;;;;;;4989425;28;20490;-70
2022/08/05 14:53:05;;;;;;;12.20;3.00;;;32.70;95.30;;;;;;4989490;28;20456;-70
2022/08/05 14:55:32;;;;;;;4.30;2.67;;;32.50;95.90;;;;;;4989098;28;20832;-69
2022/08/05 14:57:59;;;;;;;7.17;2.97;;;32.40;96.50;;;;;;4989470;28;20463;-70
2022/08/05 15:00:25;;;;;;;6.83;2.73;;;32.20;97.00;;;;;;4988790;28;20959;-70
2022/08/05 15:02:52;;;;;;;3.70;2.63;;;32.10;97.40;;;;;;4989421;28;20474;-71
2022/08/05 15:05:19;;;;;;;9.07;3.10;;;32.00;97.90;;;;;;4988324;28;20554;-71
2022/08/05 15:07:46;;;;;;;5.93;2.40;;;32.00;97.90;;;;;;4989340;28;20498;-71
2022/08/05 15:10:14;;;;;;;5.30;2.97;;;31.90;98.00;;;;;;4989318;28;20460;-71
2022/08/05 15:12:41;;;;;;;5.10;2.60;;;31.80;98.10;;;;;;4989121;28;20467;-70
2022/08/05 15:15:09;;;;;;;5.67;2.90;;;31.70;98.20;;;;;;4988838;28;20467;-70
2022/08/05 15:17:36;;;;;;;6.53;2.83;;;31.50;98.30;;;;;;4989679;28;20470;-70
2022/08/05 15:20:04;;;;;;;4.23;2.67;;;31.40;98.60;;;;;;4989935;28;20472;-70
2022/08/05 15:22:32;;;;;;;3.77;2.60;;;31.30;99.30;;;;;;4988123;28;20487;-70
2022/08/05 15:24:59;;;;;;;3.47;2.90;;;31.30;99.80;;;;;;4987937;28;20455;-70
2022/08/05 15:27:27;;;;;;;3.23;2.90;;;31.30;99.20;;;;;;4989254;28;20538;-70
2022/08/05 15:29:54;;;;;;;3.60;2.83;;;31.20;99.30;;;;;;4989161;28;20533;-70
2022/08/05 15:32:20;;;;;;;8.30;3.37;;;31.20;99.90;;;;;;4987403;28;20483;-71
2022/08/05 15:34:47;;;;;;;3.37;3.07;;;31.20;99.90;;;;;;4988379;28;20460;-69
2022/08/05 15:37:14;;;;;;;4.10;2.60;;;31.20;99.80;;;;;;4988803;28;20472;-70
2022/08/05 15:39:41;;;;;;;4.30;2.87;;;31.20;99.90;;;;;;4988647;28;20451;-67
2022/08/05 15:42:08;;;;;;;5.70;3.07;;;31.20;99.70;;;;;;4988677;28;20481;-67
2022/08/05 15:44:39;;;;;;;3.07;2.70;;;31.10;99.90;;;;;;4988047;28;20459;-67
2022/08/05 15:47:07;;;;;;;3.70;2.93;;;31.00;99.90;;;;;;4988806;28;20436;-70
2022/08/05 15:49:34;;;;;;;4.20;2.90;;;31.00;99.90;;;;;;4988806;28;20501;-70
2022/08/05 15:52:00;;;;;;;7.03;3.03;;;31.10;99.90;;;;;;4987909;28;20475;-69
2022/08/05 15:54:27;;;;;;;7.40;3.80;;;31.10;99.90;;;;;;4987904;28;20455;-70
2022/08/05 15:56:54;;;;;;;5.27;3.40;;;31.00;99.90;;;;;;4988353;28;20823;-70
2022/08/05 15:59:21;;;;;;;5.93;4.10;;;30.80;99.90;;;;;;4988260;28;21268;-70
2022/08/05 16:01:50;;;;;;;3.47;3.17;;;30.80;99.90;;;;;;4988391;28;20498;-69
2022/08/05 16:04:16;;;;;;;3.50;3.20;;;30.80;99.90;;;;;;4987542;28;20459;-69
2022/08/05 16:06:43;;;;;;;5.60;3.17;;;30.80;99.90;;;;;;4987999;28;20975;-69
2022/08/05 16:09:10;;;;;;;7.47;3.40;;;30.90;99.90;;;;;;4987973;28;20498;-70
2022/08/05 16:11:37;;;;;;;10.50;3.50;;;30.80;99.90;;;;;;4988032;28;21359;-69
2022/08/05 16:14:04;;;;;;;4.53;2.90;;;30.80;99.90;;;;;;4987784;28;20475;-69
2022/08/05 16:16:31;;;;;;;3.57;2.87;;;30.80;99.90;;;;;;4988048;28;20800;-69
2022/08/05 16:19:00;;;;;;;4.30;3.53;;;30.80;99.90;;;;;;4987643;28;20456;-69
2022/08/05 16:21:26;;;;;;;5.53;3.13;;;30.80;99.90;;;;;;4987875;28;20479;-69
2022/08/05 16:23:53;;;;;;;5.10;3.73;;;30.80;99.90;;;;;;4987233;28;20498;-70
2022/08/05 16:26:20;;;;;;;3.77;3.00;;;30.90;99.90;;;;;;4987048;28;20462;-70
2022/08/05 16:28:48;;;;;;;5.33;3.10;;;30.90;99.90;;;;;;4987604;28;21025;-69
2022/08/05 16:31:15;;;;;;;4.53;3.67;;;30.80;99.90;;;;;;4988041;28;20486;-70
2022/08/05 16:33:42;;;;;;;3.93;3.03;;;30.80;99.90;;;;;;4987533;28;20463;-69
2022/08/05 16:36:10;;;;;;;3.67;3.03;;;30.90;99.90;;;;;;4987190;28;20490;-70
2022/08/05 16:38:37;;;;;;;3.47;3.17;;;30.90;99.90;;;;;;4987671;28;20460;-71
2022/08/05 16:41:04;;;;;;;4.57;3.20;;;30.90;99.90;;;;;;4987581;28;20571;-70
2022/08/05 16:43:33;;;;;;;3.30;3.00;;;30.90;99.90;;;;;;4987529;28;20500;-69
2022/08/05 16:46:01;;;;;;;3.13;2.83;;;30.90;99.90;;;;;;4986707;28;20494;-69
2022/08/05 16:48:28;;;;;;;3.23;2.93;;;30.80;99.90;;;;;;4987284;28;20491;-70
2022/08/05 16:50:55;;;;;;;3.13;2.77;;;30.60;99.90;;;;;;4986976;28;20485;-69
2022/08/05 16:53:23;;;;;;;4.33;2.97;;;30.60;99.90;;;;;;4987535;28;20462;-70
2022/08/05 16:55:50;;;;;;;3.80;2.70;;;30.60;99.90;;;;;;4986454;28;21233;-69
2022/08/05 16:58:17;;;;;;;3.13;2.80;;;30.50;99.90;;;;;;4987411;28;20463;-69